sensor_id;sensor_type;location;lat;lon;timestamp;pressure;altitude;pressure_sealevel;temperature;humidity
20027;BME280;10174;42.688;23.344;2022-09-16T00:00:13;94723.88;;;19.32;61.71
20027;BME280;10174;42.688;23.344;2022-09-16T00:02:38;94800.53;;;19.64;62.31
20027;BME280;10174;42.688;23.344;2022-09-16T00:05:04;94729.19;;;19.08;62.76
20027;BME280;10174;42.688;23.344;2022-09-16T00:07:30;94711.06;;;18.82;63.23
20027;BME280;10174;42.688;23.344;2022-09-16T00:09:55;94780.06;;;19.37;62.39
20027;BME280;10174;42.688;23.344;2022-09-16T00:12:21;94796.00;;;19.47;62.32
20027;BME280;10174;42.688;23.344;2022-09-16T00:14:46;94784.06;;;19.39;62.48
20027;BME280;10174;42.688;23.344;2022-09-16T00:17:12;94797.59;;;19.48;62.78
20027;BME280;10174;42.688;23.344;2022-09-16T00:19:38;94736.13;;;18.96;62.89
20027;BME280;10174;42.688;23.344;2022-09-16T00:22:03;94726.41;;;18.95;62.76
20027;BME280;10174;42.688;23.344;2022-09-16T00:24:28;94779.13;;;19.33;62.02
20027;BME280;10174;42.688;23.344;2022-09-16T00:26:54;94678.16;;;18.75;62.31
20027;BME280;10174;42.688;23.344;2022-09-16T00:29:19;94778.47;;;19.57;61.44
20027;BME280;10174;42.688;23.344;2022-09-16T00:31:45;94670.72;;;18.84;62.01
20027;BME280;10174;42.688;23.344;2022-09-16T00:34:10;94779.28;;;19.36;62.96
20027;BME280;10174;42.688;23.344;2022-09-16T00:36:35;94719.56;;;18.89;63.17
20027;BME280;10174;42.688;23.344;2022-09-16T00:39:01;94791.94;;;19.32;63.00
20027;BME280;10174;42.688;23.344;2022-09-16T00:41:28;94810.34;;;19.35;62.10
20027;BME280;10174;42.688;23.344;2022-09-16T00:44:03;94707.63;;;18.73;63.38
20027;BME280;10174;42.688;23.344;2022-09-16T00:49:03;94799.84;;;19.25;63.17
20027;BME280;10174;42.688;23.344;2022-09-16T00:51:30;94787.88;;;19.17;63.13
20027;BME280;10174;42.688;23.344;2022-09-16T00:54:01;94792.72;;;19.12;63.97
20027;BME280;10174;42.688;23.344;2022-09-16T00:56:30;94802.69;;;19.08;64.00
20027;BME280;10174;42.688;23.344;2022-09-16T00:59:05;94772.53;;;18.83;64.30
20027;BME280;10174;42.688;23.344;2022-09-16T01:01:33;94801.66;;;18.91;63.93
20027;BME280;10174;42.688;23.344;2022-09-16T01:04:03;94805.03;;;18.79;64.77
20027;BME280;10174;42.688;23.344;2022-09-16T01:06:35;94789.69;;;18.75;64.45
20027;BME280;10174;42.688;23.344;2022-09-16T01:09:02;94785.75;;;18.63;64.75
20027;BME280;10174;42.688;23.344;2022-09-16T01:11:28;94803.00;;;18.67;64.97
20027;BME280;10174;42.688;23.344;2022-09-16T01:13:53;94810.34;;;18.76;64.93
20027;BME280;10174;42.688;23.344;2022-09-16T01:16:41;94774.44;;;18.52;64.99
20027;BME280;10174;42.688;23.344;2022-09-16T01:24:52;94808.41;;;18.85;64.44
20027;BME280;10174;42.688;23.344;2022-09-16T01:27:43;94798.66;;;18.75;64.61
20027;BME280;10174;42.688;23.344;2022-09-16T01:40:24;94788.69;;;18.79;64.86
20027;BME280;10174;42.688;23.344;2022-09-16T01:46:01;94793.69;;;18.86;64.66
20027;BME280;10174;42.688;23.344;2022-09-16T01:51:04;94801.97;;;18.81;65.10
20027;BME280;10174;42.688;23.344;2022-09-16T01:53:50;94807.09;;;18.82;65.20
20027;BME280;10174;42.688;23.344;2022-09-16T01:59:11;94675.53;;;17.97;65.49
20027;BME280;10174;42.688;23.344;2022-09-16T02:01:57;94787.78;;;18.75;65.10
20027;BME280;10174;42.688;23.344;2022-09-16T02:04:30;94684.91;;;18.09;65.25
20027;BME280;10174;42.688;23.344;2022-09-16T02:06:59;94780.53;;;18.88;64.69
20027;BME280;10174;42.688;23.344;2022-09-16T02:09:32;94787.72;;;18.93;64.76
20027;BME280;10174;42.688;23.344;2022-09-16T02:12:04;94797.16;;;18.95;64.62
20027;BME280;10174;42.688;23.344;2022-09-16T02:14:35;94720.09;;;18.74;63.97
20027;BME280;10174;42.688;23.344;2022-09-16T02:17:08;94785.72;;;19.02;64.55
20027;BME280;10174;42.688;23.344;2022-09-16T02:19:42;94744.91;;;18.72;64.33
20027;BME280;10174;42.688;23.344;2022-09-16T02:22:12;94787.19;;;18.99;64.46
20027;BME280;10174;42.688;23.344;2022-09-16T02:24:39;94795.19;;;19.04;64.36
20027;BME280;10174;42.688;23.344;2022-09-16T02:27:10;94739.31;;;18.68;64.78
20027;BME280;10174;42.688;23.344;2022-09-16T02:29:44;94626.00;;;17.92;65.08
20027;BME280;10174;42.688;23.344;2022-09-16T02:32:11;94784.00;;;18.97;65.08
20027;BME280;10174;42.688;23.344;2022-09-16T02:34:46;94788.91;;;19.04;64.54
20027;BME280;10174;42.688;23.344;2022-09-16T02:37:35;94788.41;;;19.11;64.67
20027;BME280;10174;42.688;23.344;2022-09-16T02:40:04;94798.63;;;19.14;63.66
20027;BME280;10174;42.688;23.344;2022-09-16T02:42:32;94799.63;;;19.09;64.89
20027;BME280;10174;42.688;23.344;2022-09-16T02:44:59;94709.66;;;18.46;65.37
20027;BME280;10174;42.688;23.344;2022-09-16T02:47:31;94791.09;;;18.90;65.69
20027;BME280;10174;42.688;23.344;2022-09-16T02:52:47;94794.31;;;18.83;65.40
20027;BME280;10174;42.688;23.344;2022-09-16T02:55:14;94795.13;;;18.75;65.55
20027;BME280;10174;42.688;23.344;2022-09-16T02:57:46;94804.59;;;18.68;65.55
20027;BME280;10174;42.688;23.344;2022-09-16T03:00:13;94804.63;;;18.60;66.75
20027;BME280;10174;42.688;23.344;2022-09-16T03:02:38;94803.50;;;18.61;66.05
20027;BME280;10174;42.688;23.344;2022-09-16T03:05:04;94742.81;;;18.01;65.95
20027;BME280;10174;42.688;23.344;2022-09-16T03:07:30;94809.97;;;18.47;65.97
20027;BME280;10174;42.688;23.344;2022-09-16T03:09:56;94822.22;;;18.62;66.44
20027;BME280;10174;42.688;23.344;2022-09-16T03:15:17;94829.69;;;18.83;65.24
20027;BME280;10174;42.688;23.344;2022-09-16T03:28:20;94838.19;;;18.73;66.07
20027;BME280;10174;42.688;23.344;2022-09-16T03:31:10;94830.47;;;18.92;64.52
20027;BME280;10174;42.688;23.344;2022-09-16T03:33:53;94797.81;;;18.92;65.35
20027;BME280;10174;42.688;23.344;2022-09-16T03:36:25;94771.47;;;18.75;65.69
20027;BME280;10174;42.688;23.344;2022-09-16T03:38:56;94762.09;;;18.55;65.87
20027;BME280;10174;42.688;23.344;2022-09-16T03:41:23;94729.84;;;18.45;65.19
20027;BME280;10174;42.688;23.344;2022-09-16T03:43:56;94785.78;;;18.93;64.20
20027;BME280;10174;42.688;23.344;2022-09-16T03:46:22;94819.09;;;19.20;65.07
20027;BME280;10174;42.688;23.344;2022-09-16T03:48:49;94812.31;;;19.26;64.97
20027;BME280;10174;42.688;23.344;2022-09-16T03:51:15;94696.03;;;18.55;64.63
20027;BME280;10174;42.688;23.344;2022-09-16T03:53:40;94683.13;;;18.43;64.95
20027;BME280;10174;42.688;23.344;2022-09-16T03:56:05;94685.47;;;18.53;65.39
20027;BME280;10174;42.688;23.344;2022-09-16T03:58:31;94815.63;;;19.11;65.86
20027;BME280;10174;42.688;23.344;2022-09-16T04:00:56;94785.19;;;18.88;66.14
20027;BME280;10174;42.688;23.344;2022-09-16T04:03:21;94788.38;;;18.90;66.30
20027;BME280;10174;42.688;23.344;2022-09-16T04:05:54;94777.38;;;18.77;65.90
20027;BME280;10174;42.688;23.344;2022-09-16T04:08:19;94800.47;;;19.01;64.97
20027;BME280;10174;42.688;23.344;2022-09-16T04:10:59;94812.81;;;18.98;65.13
20027;BME280;10174;42.688;23.344;2022-09-16T04:13:28;94840.28;;;19.05;65.71
20027;BME280;10174;42.688;23.344;2022-09-16T04:15:54;94833.94;;;19.01;65.76
20027;BME280;10174;42.688;23.344;2022-09-16T04:18:20;94842.13;;;18.93;66.24
20027;BME280;10174;42.688;23.344;2022-09-16T04:20:45;94832.22;;;18.88;65.95
20027;BME280;10174;42.688;23.344;2022-09-16T04:23:11;94843.56;;;18.90;65.91
20027;BME280;10174;42.688;23.344;2022-09-16T04:25:37;94863.28;;;18.87;66.14
20027;BME280;10174;42.688;23.344;2022-09-16T04:28:05;94860.72;;;18.91;66.69
20027;BME280;10174;42.688;23.344;2022-09-16T04:30:30;94877.66;;;18.96;67.04
20027;BME280;10174;42.688;23.344;2022-09-16T04:32:56;94849.66;;;18.96;66.44
20027;BME280;10174;42.688;23.344;2022-09-16T04:35:22;94857.88;;;19.17;65.51
20027;BME280;10174;42.688;23.344;2022-09-16T04:37:49;94867.81;;;19.13;66.07
20027;BME280;10174;42.688;23.344;2022-09-16T04:40:15;94860.72;;;18.91;67.30
20027;BME280;10174;42.688;23.344;2022-09-16T04:42:46;94836.28;;;18.64;67.52
20027;BME280;10174;42.688;23.344;2022-09-16T04:45:11;94854.53;;;18.73;67.45
20027;BME280;10174;42.688;23.344;2022-09-16T04:47:37;94846.25;;;18.60;67.20
20027;BME280;10174;42.688;23.344;2022-09-16T04:50:02;94833.28;;;18.57;66.84
20027;BME280;10174;42.688;23.344;2022-09-16T04:52:29;94873.69;;;18.76;66.98
20027;BME280;10174;42.688;23.344;2022-09-16T04:54:55;94877.72;;;18.88;67.08
20027;BME280;10174;42.688;23.344;2022-09-16T04:57:20;94859.91;;;18.90;66.94
20027;BME280;10174;42.688;23.344;2022-09-16T04:59:45;94781.78;;;18.52;66.43
20027;BME280;10174;42.688;23.344;2022-09-16T05:02:11;94840.38;;;18.97;66.15
20027;BME280;10174;42.688;23.344;2022-09-16T05:04:36;94820.56;;;18.88;65.66
20027;BME280;10174;42.688;23.344;2022-09-16T05:07:02;94847.88;;;19.00;65.92
20027;BME280;10174;42.688;23.344;2022-09-16T05:09:27;94753.03;;;18.42;66.13
20027;BME280;10174;42.688;23.344;2022-09-16T05:11:53;94765.00;;;18.50;66.44
20027;BME280;10174;42.688;23.344;2022-09-16T05:14:18;94853.88;;;19.14;66.20
20027;BME280;10174;42.688;23.344;2022-09-16T05:16:44;94854.84;;;19.39;65.41
20027;BME280;10174;42.688;23.344;2022-09-16T05:19:11;94843.03;;;19.35;65.45
20027;BME280;10174;42.688;23.344;2022-09-16T05:21:38;94840.81;;;19.50;65.57
20027;BME280;10174;42.688;23.344;2022-09-16T05:24:06;94845.72;;;19.65;66.02
20027;BME280;10174;42.688;23.344;2022-09-16T05:26:33;94820.47;;;19.77;65.51
20027;BME280;10174;42.688;23.344;2022-09-16T05:29:01;94745.19;;;19.30;65.56
20027;BME280;10174;42.688;23.344;2022-09-16T05:31:32;94802.66;;;19.80;65.43
20027;BME280;10174;42.688;23.344;2022-09-16T05:34:12;94846.63;;;20.11;65.56
20027;BME280;10174;42.688;23.344;2022-09-16T05:36:39;94833.44;;;20.14;64.71
20027;BME280;10174;42.688;23.344;2022-09-16T05:39:07;94829.72;;;20.18;64.91
20027;BME280;10174;42.688;23.344;2022-09-16T05:41:32;94829.00;;;20.42;64.93
20027;BME280;10174;42.688;23.344;2022-09-16T05:43:58;94832.44;;;20.64;63.27
20027;BME280;10174;42.688;23.344;2022-09-16T05:46:25;94816.34;;;20.71;62.85
20027;BME280;10174;42.688;23.344;2022-09-16T05:48:51;94814.97;;;20.90;62.95
20027;BME280;10174;42.688;23.344;2022-09-16T05:51:19;94831.25;;;21.11;62.37
20027;BME280;10174;42.688;23.344;2022-09-16T05:53:46;94830.47;;;21.23;62.35
20027;BME280;10174;42.688;23.344;2022-09-16T05:56:15;94827.94;;;21.30;62.03
20027;BME280;10174;42.688;23.344;2022-09-16T05:58:41;94821.00;;;21.32;62.59
20027;BME280;10174;42.688;23.344;2022-09-16T06:01:12;94832.94;;;21.52;61.74
20027;BME280;10174;42.688;23.344;2022-09-16T06:03:40;94830.19;;;21.52;63.14
20027;BME280;10174;42.688;23.344;2022-09-16T06:06:11;94821.22;;;21.52;62.77
20027;BME280;10174;42.688;23.344;2022-09-16T06:08:38;94819.94;;;21.62;61.88
20027;BME280;10174;42.688;23.344;2022-09-16T06:11:05;94833.13;;;21.72;61.32
20027;BME280;10174;42.688;23.344;2022-09-16T06:13:31;94827.34;;;21.89;59.81
20027;BME280;10174;42.688;23.344;2022-09-16T06:15:57;94783.22;;;21.75;58.59
20027;BME280;10174;42.688;23.344;2022-09-16T06:18:24;94821.34;;;22.12;55.93
20027;BME280;10174;42.688;23.344;2022-09-16T06:20:50;94834.22;;;22.40;54.22
20027;BME280;10174;42.688;23.344;2022-09-16T06:23:16;94776.75;;;22.24;53.11
20027;BME280;10174;42.688;23.344;2022-09-16T06:25:42;94805.22;;;22.67;52.45
20027;BME280;10174;42.688;23.344;2022-09-16T06:28:08;94771.31;;;22.72;51.71
20027;BME280;10174;42.688;23.344;2022-09-16T06:30:38;94800.28;;;23.05;50.23
20027;BME280;10174;42.688;23.344;2022-09-16T06:33:04;94814.41;;;23.23;51.14
20027;BME280;10174;42.688;23.344;2022-09-16T06:35:30;94802.09;;;23.33;48.82
20027;BME280;10174;42.688;23.344;2022-09-16T06:37:55;94803.84;;;23.41;49.78
20027;BME280;10174;42.688;23.344;2022-09-16T06:40:21;94815.72;;;23.64;51.15
20027;BME280;10174;42.688;23.344;2022-09-16T06:42:46;94804.03;;;23.68;50.05
20027;BME280;10174;42.688;23.344;2022-09-16T06:45:12;94821.69;;;23.86;50.30
20027;BME280;10174;42.688;23.344;2022-09-16T06:47:37;94811.53;;;23.71;49.62
20027;BME280;10174;42.688;23.344;2022-09-16T06:50:04;94830.19;;;23.81;49.12
20027;BME280;10174;42.688;23.344;2022-09-16T06:52:30;94829.94;;;23.70;50.04
20027;BME280;10174;42.688;23.344;2022-09-16T06:54:56;94826.50;;;23.73;49.64
20027;BME280;10174;42.688;23.344;2022-09-16T06:57:21;94826.53;;;23.57;50.47
20027;BME280;10174;42.688;23.344;2022-09-16T06:59:50;94812.41;;;23.55;49.54
20027;BME280;10174;42.688;23.344;2022-09-16T07:02:17;94824.03;;;23.33;48.86
20027;BME280;10174;42.688;23.344;2022-09-16T07:04:42;94824.75;;;23.29;46.93
20027;BME280;10174;42.688;23.344;2022-09-16T07:07:08;94800.28;;;23.05;46.85
20027;BME280;10174;42.688;23.344;2022-09-16T07:09:33;94835.69;;;23.29;47.19
20027;BME280;10174;42.688;23.344;2022-09-16T07:11:59;94830.09;;;23.42;47.71
20027;BME280;10174;42.688;23.344;2022-09-16T07:14:27;94813.25;;;23.40;46.32
20027;BME280;10174;42.688;23.344;2022-09-16T07:16:53;94833.78;;;23.65;47.52
20027;BME280;10174;42.688;23.344;2022-09-16T07:19:18;94832.91;;;23.81;47.96
20027;BME280;10174;42.688;23.344;2022-09-16T07:21:44;94837.56;;;23.96;47.53
20027;BME280;10174;42.688;23.344;2022-09-16T07:24:13;94825.38;;;23.94;45.93
20027;BME280;10174;42.688;23.344;2022-09-16T07:26:39;94780.25;;;23.72;46.39
20027;BME280;10174;42.688;23.344;2022-09-16T07:29:11;94817.78;;;23.87;46.62
20027;BME280;10174;42.688;23.344;2022-09-16T07:31:36;94821.84;;;23.93;46.34
20027;BME280;10174;42.688;23.344;2022-09-16T07:34:03;94829.72;;;24.14;45.77
20027;BME280;10174;42.688;23.344;2022-09-16T07:36:48;94824.69;;;24.20;45.73
20027;BME280;10174;42.688;23.344;2022-09-16T07:39:16;94824.28;;;24.18;45.90
20027;BME280;10174;42.688;23.344;2022-09-16T07:41:44;94813.31;;;24.18;45.22
20027;BME280;10174;42.688;23.344;2022-09-16T07:44:14;94809.56;;;24.07;45.37
20027;BME280;10174;42.688;23.344;2022-09-16T07:46:40;94778.84;;;23.97;44.73
20027;BME280;10174;42.688;23.344;2022-09-16T07:49:07;94806.22;;;24.17;45.51
20027;BME280;10174;42.688;23.344;2022-09-16T07:51:33;94784.56;;;24.31;46.52
20027;BME280;10174;42.688;23.344;2022-09-16T07:54:05;94755.22;;;23.93;44.62
20027;BME280;10174;42.688;23.344;2022-09-16T07:56:34;94789.31;;;24.34;44.75
20027;BME280;10174;42.688;23.344;2022-09-16T07:59:01;94804.06;;;24.69;44.31
20027;BME280;10174;42.688;23.344;2022-09-16T08:01:26;94789.13;;;24.66;43.07
20027;BME280;10174;42.688;23.344;2022-09-16T08:03:54;94787.16;;;24.90;43.16
20027;BME280;10174;42.688;23.344;2022-09-16T08:06:23;94783.97;;;25.38;43.22
20027;BME280;10174;42.688;23.344;2022-09-16T08:08:54;94782.41;;;25.67;42.76
20027;BME280;10174;42.688;23.344;2022-09-16T08:11:20;94750.47;;;25.59;41.84
20027;BME280;10174;42.688;23.344;2022-09-16T08:13:46;94781.59;;;25.97;41.79
20027;BME280;10174;42.688;23.344;2022-09-16T08:16:15;94774.78;;;26.18;41.65
20027;BME280;10174;42.688;23.344;2022-09-16T08:18:41;94771.22;;;26.17;41.43
20027;BME280;10174;42.688;23.344;2022-09-16T08:21:11;94772.44;;;25.86;40.89
20027;BME280;10174;42.688;23.344;2022-09-16T08:23:37;94777.78;;;26.05;40.54
20027;BME280;10174;42.688;23.344;2022-09-16T08:26:04;94769.47;;;26.36;40.35
20027;BME280;10174;42.688;23.344;2022-09-16T08:28:30;94776.00;;;26.61;40.32
20027;BME280;10174;42.688;23.344;2022-09-16T08:30:59;94764.69;;;27.18;39.01
20027;BME280;10174;42.688;23.344;2022-09-16T08:33:25;94753.03;;;27.43;40.16
20027;BME280;10174;42.688;23.344;2022-09-16T08:38:30;94765.22;;;27.35;38.10
20027;BME280;10174;42.688;23.344;2022-09-16T08:44:11;94751.25;;;27.80;37.17
20027;BME280;10174;42.688;23.344;2022-09-16T08:49:31;94747.25;;;27.70;37.07
20027;BME280;10174;42.688;23.344;2022-09-16T08:51:58;94745.44;;;28.03;37.26
20027;BME280;10174;42.688;23.344;2022-09-16T08:54:33;94729.28;;;27.98;38.47
20027;BME280;10174;42.688;23.344;2022-09-16T08:57:02;94676.41;;;27.88;36.78
20027;BME280;10174;42.688;23.344;2022-09-16T08:59:33;94749.81;;;28.04;35.99
20027;BME280;10174;42.688;23.344;2022-09-16T09:04:44;94743.47;;;27.30;38.04
20027;BME280;10174;42.688;23.344;2022-09-16T09:10:12;94754.09;;;27.28;38.14
20027;BME280;10174;42.688;23.344;2022-09-16T09:43:09;94727.72;;;28.11;37.01
20027;BME280;10174;42.688;23.344;2022-09-16T09:45:41;94751.00;;;28.17;37.97
20027;BME280;10174;42.688;23.344;2022-09-16T09:48:17;94722.50;;;27.84;37.09
20027;BME280;10174;42.688;23.344;2022-09-16T09:50:45;94758.88;;;28.15;37.63
20027;BME280;10174;42.688;23.344;2022-09-16T09:53:13;94759.75;;;28.41;37.95
20027;BME280;10174;42.688;23.344;2022-09-16T09:55:42;94751.75;;;27.96;38.17
20027;BME280;10174;42.688;23.344;2022-09-16T09:58:26;94764.78;;;28.03;38.52
20027;BME280;10174;42.688;23.344;2022-09-16T10:00:54;94774.44;;;27.64;38.98
20027;BME280;10174;42.688;23.344;2022-09-16T10:03:23;94782.59;;;27.46;39.80
20027;BME280;10174;42.688;23.344;2022-09-16T10:05:48;94779.44;;;27.44;40.84
20027;BME280;10174;42.688;23.344;2022-09-16T10:08:21;94727.00;;;26.37;41.41
20027;BME280;10174;42.688;23.344;2022-09-16T10:10:53;94787.78;;;25.87;44.03
20027;BME280;10174;42.688;23.344;2022-09-16T10:13:20;94827.44;;;25.86;48.12
20027;BME280;10174;42.688;23.344;2022-09-16T10:15:47;94829.38;;;25.55;47.39
20027;BME280;10174;42.688;23.344;2022-09-16T10:18:22;94841.97;;;25.29;48.34
20027;BME280;10174;42.688;23.344;2022-09-16T10:21:06;94851.06;;;24.87;49.85
20027;BME280;10174;42.688;23.344;2022-09-16T10:23:33;94825.72;;;24.31;50.90
20027;BME280;10174;42.688;23.344;2022-09-16T10:26:26;94927.09;;;24.44;51.33
20027;BME280;10174;42.688;23.344;2022-09-16T10:29:15;94940.22;;;24.15;53.31
20027;BME280;10174;42.688;23.344;2022-09-16T10:31:41;94922.75;;;23.20;55.90
20027;BME280;10174;42.688;23.344;2022-09-16T10:36:58;95034.22;;;22.10;62.96
20027;BME280;10174;42.688;23.344;2022-09-16T10:39:25;95020.09;;;21.83;64.69
20027;BME280;10174;42.688;23.344;2022-09-16T10:41:51;95021.38;;;21.74;64.91
20027;BME280;10174;42.688;23.344;2022-09-16T10:44:28;95028.88;;;21.64;66.28
20027;BME280;10174;42.688;23.344;2022-09-16T10:46:57;95021.72;;;21.14;67.26
20027;BME280;10174;42.688;23.344;2022-09-16T10:49:43;95029.88;;;21.02;69.03
20027;BME280;10174;42.688;23.344;2022-09-16T10:52:24;95014.69;;;20.92;70.44
20027;BME280;10174;42.688;23.344;2022-09-16T10:54:50;94924.88;;;20.11;70.27
20027;BME280;10174;42.688;23.344;2022-09-16T10:57:31;95012.75;;;20.59;71.95
20027;BME280;10174;42.688;23.344;2022-09-16T11:00:39;94983.34;;;20.43;72.45
20027;BME280;10174;42.688;23.344;2022-09-16T11:14:15;94901.06;;;20.54;71.66
20027;BME280;10174;42.688;23.344;2022-09-16T11:35:01;94802.19;;;26.82;47.31
20027;BME280;10174;42.688;23.344;2022-09-16T11:37:41;94791.47;;;26.70;45.96
20027;BME280;10174;42.688;23.344;2022-09-16T11:40:22;94789.03;;;27.13;46.79
20027;BME280;10174;42.688;23.344;2022-09-16T11:45:58;94795.59;;;26.53;44.44
20027;BME280;10174;42.688;23.344;2022-09-16T11:54:06;94795.34;;;24.86;55.75
20027;BME280;10174;42.688;23.344;2022-09-16T11:56:40;94778.94;;;24.67;53.08
20027;BME280;10174;42.688;23.344;2022-09-16T11:59:14;94782.97;;;24.30;51.75
20027;BME280;10174;42.688;23.344;2022-09-16T12:01:45;94773.59;;;24.78;50.26
20027;BME280;10174;42.688;23.344;2022-09-16T12:04:27;94773.81;;;25.72;48.29
20027;BME280;10174;42.688;23.344;2022-09-16T12:07:12;94742.09;;;26.12;44.69
20027;BME280;10174;42.688;23.344;2022-09-16T12:09:54;94779.56;;;27.07;45.00
20027;BME280;10174;42.688;23.344;2022-09-16T12:12:31;94774.88;;;27.14;43.31
20027;BME280;10174;42.688;23.344;2022-09-16T12:15:02;94754.34;;;26.19;44.72
20027;BME280;10174;42.688;23.344;2022-09-16T12:17:36;94802.78;;;25.93;47.20
20027;BME280;10174;42.688;23.344;2022-09-16T12:20:18;94783.81;;;25.04;53.69
20027;BME280;10174;42.688;23.344;2022-09-16T12:22:51;94743.13;;;24.17;56.98
20027;BME280;10174;42.688;23.344;2022-09-16T12:25:27;94806.09;;;24.10;58.23
20027;BME280;10174;42.688;23.344;2022-09-16T12:30:22;94690.69;;;23.21;58.43
20027;BME280;10174;42.688;23.344;2022-09-16T12:37:58;94795.59;;;23.21;59.95
20027;BME280;10174;42.688;23.344;2022-09-16T12:40:34;94793.66;;;23.06;61.28
20027;BME280;10174;42.688;23.344;2022-09-16T12:43:17;94801.09;;;22.89;61.97
20027;BME280;10174;42.688;23.344;2022-09-16T12:57:27;94842.13;;;22.73;61.47
20027;BME280;10174;42.688;23.344;2022-09-16T13:02:29;94869.63;;;22.77;61.94
20027;BME280;10174;42.688;23.344;2022-09-16T13:05:09;94877.97;;;22.52;62.73
20027;BME280;10174;42.688;23.344;2022-09-16T13:07:36;94891.13;;;22.63;63.50
20027;BME280;10174;42.688;23.344;2022-09-16T13:10:16;94886.00;;;22.45;63.57
20027;BME280;10174;42.688;23.344;2022-09-16T13:12:52;94870.53;;;22.24;64.60
20027;BME280;10174;42.688;23.344;2022-09-16T13:15:38;94902.00;;;22.31;66.37
20027;BME280;10174;42.688;23.344;2022-09-16T13:20:57;94847.97;;;21.34;68.49
20027;BME280;10174;42.688;23.344;2022-09-16T13:23:26;94908.75;;;21.56;69.76
20027;BME280;10174;42.688;23.344;2022-09-16T13:26:04;94908.06;;;21.34;72.21
20027;BME280;10174;42.688;23.344;2022-09-16T13:28:37;94919.75;;;21.47;70.56
20027;BME280;10174;42.688;23.344;2022-09-16T13:38:52;94873.47;;;21.63;69.70
20027;BME280;10174;42.688;23.344;2022-09-16T13:41:40;94858.81;;;21.83;69.97
20027;BME280;10174;42.688;23.344;2022-09-16T13:46:50;94818.53;;;22.09;69.07
20027;BME280;10174;42.688;23.344;2022-09-16T13:49:23;94789.00;;;22.14;69.70
20027;BME280;10174;42.688;23.344;2022-09-16T13:51:51;94749.63;;;22.03;70.10
20027;BME280;10174;42.688;23.344;2022-09-16T13:54:30;94733.22;;;22.03;69.07
20027;BME280;10174;42.688;23.344;2022-09-16T14:02:46;94781.63;;;22.31;71.48
20027;BME280;10174;42.688;23.344;2022-09-16T14:05:36;94775.91;;;22.52;71.63
20027;BME280;10174;42.688;23.344;2022-09-16T14:09:03;94774.34;;;22.67;70.73
20027;BME280;10174;42.688;23.344;2022-09-16T14:11:06;94781.03;;;22.37;69.34
20027;BME280;10174;42.688;23.344;2022-09-16T14:13:40;94803.72;;;22.10;67.71
20027;BME280;10174;42.688;23.344;2022-09-16T14:16:19;94802.41;;;21.91;70.02
20027;BME280;10174;42.688;23.344;2022-09-16T14:21:20;94853.88;;;22.01;70.51
20027;BME280;10174;42.688;23.344;2022-09-16T14:23:46;94857.91;;;21.92;69.71
20027;BME280;10174;42.688;23.344;2022-09-16T14:26:14;94830.31;;;21.97;68.70
20027;BME280;10174;42.688;23.344;2022-09-16T14:28:40;94804.78;;;21.93;68.05
20027;BME280;10174;42.688;23.344;2022-09-16T14:31:08;94812.28;;;22.08;67.26
20027;BME280;10174;42.688;23.344;2022-09-16T14:33:40;94806.19;;;21.86;66.12
20027;BME280;10174;42.688;23.344;2022-09-16T14:36:28;94796.16;;;21.91;67.72
20027;BME280;10174;42.688;23.344;2022-09-16T14:38:59;94800.97;;;21.81;69.47
20027;BME280;10174;42.688;23.344;2022-09-16T14:41:35;94721.38;;;21.42;70.32
20027;BME280;10174;42.688;23.344;2022-09-16T14:44:26;94792.28;;;21.92;70.04
20027;BME280;10174;42.688;23.344;2022-09-16T14:49:40;94785.66;;;21.64;72.36
20027;BME280;10174;42.688;23.344;2022-09-16T14:52:20;94736.44;;;21.24;74.32
20027;BME280;10174;42.688;23.344;2022-09-16T14:54:46;94773.84;;;21.48;73.66
20027;BME280;10174;42.688;23.344;2022-09-16T14:57:20;94778.72;;;21.42;74.23
20027;BME280;10174;42.688;23.344;2022-09-16T14:59:48;94804.22;;;21.46;73.99
20027;BME280;10174;42.688;23.344;2022-09-16T15:04:43;94810.03;;;21.57;73.25
20027;BME280;10174;42.688;23.344;2022-09-16T15:07:16;94798.19;;;21.65;72.13
20027;BME280;10174;42.688;23.344;2022-09-16T15:10:28;94809.09;;;21.78;72.64
20027;BME280;10174;42.688;23.344;2022-09-16T15:12:36;94814.44;;;21.74;72.66
20027;BME280;10174;42.688;23.344;2022-09-16T15:15:04;94810.88;;;21.86;72.01
20027;BME280;10174;42.688;23.344;2022-09-16T15:17:31;94788.31;;;21.89;69.51
20027;BME280;10174;42.688;23.344;2022-09-16T15:19:58;94797.47;;;21.81;68.94
20027;BME280;10174;42.688;23.344;2022-09-16T15:22:25;94810.31;;;21.80;66.32
20027;BME280;10174;42.688;23.344;2022-09-16T15:24:56;94725.13;;;21.38;65.55
20027;BME280;10174;42.688;23.344;2022-09-16T15:27:28;94729.97;;;21.69;66.27
20027;BME280;10174;42.688;23.344;2022-09-16T15:29:58;94616.28;;;21.24;65.75
20027;BME280;10174;42.688;23.344;2022-09-16T15:32:27;94687.50;;;21.87;65.12
20027;BME280;10174;42.688;23.344;2022-09-16T15:35:24;94715.97;;;21.86;66.50
20027;BME280;10174;42.688;23.344;2022-09-16T15:37:51;94721.91;;;21.88;64.18
20027;BME280;10174;42.688;23.344;2022-09-16T15:44:06;94716.72;;;21.99;63.41
20027;BME280;10174;42.688;23.344;2022-09-16T15:48:24;94718.00;;;21.89;65.54
20027;BME280;10174;42.688;23.344;2022-09-16T15:50:54;94672.63;;;21.57;67.75
20027;BME280;10174;42.688;23.344;2022-09-16T15:56:06;94695.44;;;21.36;72.05
20027;BME280;10174;42.688;23.344;2022-09-16T16:03:23;94693.97;;;20.73;75.47
20027;BME280;10174;42.688;23.344;2022-09-16T16:05:53;94710.59;;;20.68;76.29
20027;BME280;10174;42.688;23.344;2022-09-16T16:08:42;94706.75;;;20.69;77.13
20027;BME280;10174;42.688;23.344;2022-09-16T16:11:13;94690.25;;;20.66;76.30
20027;BME280;10174;42.688;23.344;2022-09-16T16:13:39;94674.19;;;20.52;75.56
20027;BME280;10174;42.688;23.344;2022-09-16T16:16:05;94629.31;;;20.37;74.25